sensor_id;sensor_type;location;lat;lon;timestamp;temperature;humidity
15625;DHT22;7912;51.376;6.126;2023-10-13T00:00:41;21.00;99.90
15625;DHT22;7912;51.376;6.126;2023-10-13T00:03:10;21.00;99.90
15625;DHT22;7912;51.376;6.126;2023-10-13T00:05:42;21.00;99.90
15625;DHT22;7912;51.376;6.126;2023-10-13T00:08:11;21.00;99.90
15625;DHT22;7912;51.376;6.126;2023-10-13T00:10:41;21.00;99.90
15625;DHT22;7912;51.376;6.126;2023-10-13T00:13:09;21.00;99.90
15625;DHT22;7912;51.376;6.126;2023-10-13T00:15:44;21.00;99.90
15625;DHT22;7912;51.376;6.126;2023-10-13T00:18:33;21.00;99.90
15625;DHT22;7912;51.376;6.126;2023-10-13T00:21:02;21.00;99.90
15625;DHT22;7912;51.376;6.126;2023-10-13T00:23:48;21.00;99.90
15625;DHT22;7912;51.376;6.126;2023-10-13T00:26:21;21.00;99.90
15625;DHT22;7912;51.376;6.126;2023-10-13T00:28:52;21.00;99.90
15625;DHT22;7912;51.376;6.126;2023-10-13T00:31:26;21.00;99.90
15625;DHT22;7912;51.376;6.126;2023-10-13T00:34:00;21.00;99.90
15625;DHT22;7912;51.376;6.126;2023-10-13T00:36:32;21.00;99.90
15625;DHT22;7912;51.376;6.126;2023-10-13T00:39:01;21.00;99.90
15625;DHT22;7912;51.376;6.126;2023-10-13T00:41:34;21.10;99.90
15625;DHT22;7912;51.376;6.126;2023-10-13T00:44:19;21.10;99.90
15625;DHT22;7912;51.376;6.126;2023-10-13T00:47:05;21.10;99.90
15625;DHT22;7912;51.376;6.126;2023-10-13T00:49:37;21.10;99.90
15625;DHT22;7912;51.376;6.126;2023-10-13T00:52:07;21.10;99.90
15625;DHT22;7912;51.376;6.126;2023-10-13T00:54:37;21.10;99.90
15625;DHT22;7912;51.376;6.126;2023-10-13T00:57:09;21.10;99.90
15625;DHT22;7912;51.376;6.126;2023-10-13T00:59:54;21.20;99.90
15625;DHT22;7912;51.376;6.126;2023-10-13T01:02:24;21.20;99.90
15625;DHT22;7912;51.376;6.126;2023-10-13T01:05:07;21.20;99.90
15625;DHT22;7912;51.376;6.126;2023-10-13T01:07:47;21.20;99.90
15625;DHT22;7912;51.376;6.126;2023-10-13T01:10:22;21.20;99.90
15625;DHT22;7912;51.376;6.126;2023-10-13T01:12:59;21.20;99.90
15625;DHT22;7912;51.376;6.126;2023-10-13T01:15:29;21.20;99.90
15625;DHT22;7912;51.376;6.126;2023-10-13T01:18:07;21.20;99.90
15625;DHT22;7912;51.376;6.126;2023-10-13T01:20:39;21.20;99.90
15625;DHT22;7912;51.376;6.126;2023-10-13T01:23:13;21.20;99.90
15625;DHT22;7912;51.376;6.126;2023-10-13T01:25:46;21.20;99.90
15625;DHT22;7912;51.376;6.126;2023-10-13T01:28:15;21.20;99.90
15625;DHT22;7912;51.376;6.126;2023-10-13T01:30:44;21.20;99.90
15625;DHT22;7912;51.376;6.126;2023-10-13T01:33:18;21.20;99.90
15625;DHT22;7912;51.376;6.126;2023-10-13T01:35:55;21.20;99.90
15625;DHT22;7912;51.376;6.126;2023-10-13T01:38:26;21.20;99.90
15625;DHT22;7912;51.376;6.126;2023-10-13T01:40:54;21.20;99.90
15625;DHT22;7912;51.376;6.126;2023-10-13T01:43:23;21.10;99.90
15625;DHT22;7912;51.376;6.126;2023-10-13T01:45:51;21.10;99.90
15625;DHT22;7912;51.376;6.126;2023-10-13T01:48:20;21.20;99.90
15625;DHT22;7912;51.376;6.126;2023-10-13T01:50:48;21.10;99.90
15625;DHT22;7912;51.376;6.126;2023-10-13T01:53:23;21.20;99.90
15625;DHT22;7912;51.376;6.126;2023-10-13T01:55:50;21.10;99.90
15625;DHT22;7912;51.376;6.126;2023-10-13T01:58:17;21.10;99.90
15625;DHT22;7912;51.376;6.126;2023-10-13T02:00:50;21.10;99.90
15625;DHT22;7912;51.376;6.126;2023-10-13T02:03:18;21.10;99.90
15625;DHT22;7912;51.376;6.126;2023-10-13T02:05:48;21.10;99.90
15625;DHT22;7912;51.376;6.126;2023-10-13T02:08:18;21.10;99.90
15625;DHT22;7912;51.376;6.126;2023-10-13T02:10:57;21.10;99.90
15625;DHT22;7912;51.376;6.126;2023-10-13T02:13:28;21.10;99.90
15625;DHT22;7912;51.376;6.126;2023-10-13T02:15:57;21.10;99.90
15625;DHT22;7912;51.376;6.126;2023-10-13T02:18:29;21.10;99.90
15625;DHT22;7912;51.376;6.126;2023-10-13T02:21:16;21.10;99.90
15625;DHT22;7912;51.376;6.126;2023-10-13T02:23:44;21.10;99.90
15625;DHT22;7912;51.376;6.126;2023-10-13T02:26:29;21.10;99.90
15625;DHT22;7912;51.376;6.126;2023-10-13T02:28:59;21.10;99.90
15625;DHT22;7912;51.376;6.126;2023-10-13T02:31:31;21.10;99.90
15625;DHT22;7912;51.376;6.126;2023-10-13T02:33:58;21.10;99.90
15625;DHT22;7912;51.376;6.126;2023-10-13T02:36:27;21.10;99.90
15625;DHT22;7912;51.376;6.126;2023-10-13T02:39:06;21.10;99.90
15625;DHT22;7912;51.376;6.126;2023-10-13T02:41:37;21.10;99.90
15625;DHT22;7912;51.376;6.126;2023-10-13T02:44:05;21.10;99.90
15625;DHT22;7912;51.376;6.126;2023-10-13T02:46:34;21.10;99.90
15625;DHT22;7912;51.376;6.126;2023-10-13T02:49:07;21.10;99.90
15625;DHT22;7912;51.376;6.126;2023-10-13T02:51:38;21.10;99.90
15625;DHT22;7912;51.376;6.126;2023-10-13T02:54:09;21.10;99.90
15625;DHT22;7912;51.376;6.126;2023-10-13T02:56:45;21.10;99.90
15625;DHT22;7912;51.376;6.126;2023-10-13T02:59:27;21.10;99.90
15625;DHT22;7912;51.376;6.126;2023-10-13T03:02:02;21.10;99.90
15625;DHT22;7912;51.376;6.126;2023-10-13T03:04:47;21.10;99.90
15625;DHT22;7912;51.376;6.126;2023-10-13T03:07:16;21.10;99.90
15625;DHT22;7912;51.376;6.126;2023-10-13T03:09:50;21.10;99.90
15625;DHT22;7912;51.376;6.126;2023-10-13T03:12:19;21.10;99.90
15625;DHT22;7912;51.376;6.126;2023-10-13T03:14:47;21.10;99.90
15625;DHT22;7912;51.376;6.126;2023-10-13T03:17:14;21.10;99.90
15625;DHT22;7912;51.376;6.126;2023-10-13T03:19:45;21.20;99.90
15625;DHT22;7912;51.376;6.126;2023-10-13T03:22:21;21.20;99.90
15625;DHT22;7912;51.376;6.126;2023-10-13T03:24:59;21.20;99.90
15625;DHT22;7912;51.376;6.126;2023-10-13T03:27:34;21.20;99.90
15625;DHT22;7912;51.376;6.126;2023-10-13T03:30:28;21.20;99.90
15625;DHT22;7912;51.376;6.126;2023-10-13T03:33:04;21.20;99.90
15625;DHT22;7912;51.376;6.126;2023-10-13T03:35:38;21.20;99.90
15625;DHT22;7912;51.376;6.126;2023-10-13T03:38:10;21.20;99.90
15625;DHT22;7912;51.376;6.126;2023-10-13T03:40:52;21.20;99.90
15625;DHT22;7912;51.376;6.126;2023-10-13T03:43:45;21.20;99.90
15625;DHT22;7912;51.376;6.126;2023-10-13T03:46:12;21.20;99.90
15625;DHT22;7912;51.376;6.126;2023-10-13T03:48:40;21.20;99.90
15625;DHT22;7912;51.376;6.126;2023-10-13T03:51:22;21.20;99.90
15625;DHT22;7912;51.376;6.126;2023-10-13T03:53:58;21.20;99.90
15625;DHT22;7912;51.376;6.126;2023-10-13T03:56:28;21.20;99.90
15625;DHT22;7912;51.376;6.126;2023-10-13T03:59:08;21.20;99.90
15625;DHT22;7912;51.376;6.126;2023-10-13T04:01:47;21.20;99.90
15625;DHT22;7912;51.376;6.126;2023-10-13T04:04:16;21.20;99.90
15625;DHT22;7912;51.376;6.126;2023-10-13T04:07:08;21.20;99.90
15625;DHT22;7912;51.376;6.126;2023-10-13T04:09:37;21.20;99.90
15625;DHT22;7912;51.376;6.126;2023-10-13T04:12:14;21.30;99.90
15625;DHT22;7912;51.376;6.126;2023-10-13T04:14:59;21.20;99.90
15625;DHT22;7912;51.376;6.126;2023-10-13T04:17:32;21.20;99.90
15625;DHT22;7912;51.376;6.126;2023-10-13T04:20:11;21.20;99.90
15625;DHT22;7912;51.376;6.126;2023-10-13T04:22:40;21.20;99.90
15625;DHT22;7912;51.376;6.126;2023-10-13T04:25:21;21.20;99.90
15625;DHT22;7912;51.376;6.126;2023-10-13T04:28:14;21.20;99.90
15625;DHT22;7912;51.376;6.126;2023-10-13T04:30:54;21.30;99.90
15625;DHT22;7912;51.376;6.126;2023-10-13T04:33:30;21.30;99.90
15625;DHT22;7912;51.376;6.126;2023-10-13T04:36:05;21.30;99.90
15625;DHT22;7912;51.376;6.126;2023-10-13T04:38:55;21.30;99.90
15625;DHT22;7912;51.376;6.126;2023-10-13T04:41:41;21.30;99.90
15625;DHT22;7912;51.376;6.126;2023-10-13T04:44:14;21.30;99.90
15625;DHT22;7912;51.376;6.126;2023-10-13T04:46:52;21.30;99.90
15625;DHT22;7912;51.376;6.126;2023-10-13T04:49:28;21.30;99.90
15625;DHT22;7912;51.376;6.126;2023-10-13T04:52:04;21.30;99.90
15625;DHT22;7912;51.376;6.126;2023-10-13T04:54:40;21.30;99.90
15625;DHT22;7912;51.376;6.126;2023-10-13T04:57:12;21.30;99.90
15625;DHT22;7912;51.376;6.126;2023-10-13T05:00:01;21.30;99.90
15625;DHT22;7912;51.376;6.126;2023-10-13T05:02:44;21.30;99.90
15625;DHT22;7912;51.376;6.126;2023-10-13T05:05:23;21.30;99.90
15625;DHT22;7912;51.376;6.126;2023-10-13T05:08:09;21.30;99.90
15625;DHT22;7912;51.376;6.126;2023-10-13T05:10:55;21.30;99.90
15625;DHT22;7912;51.376;6.126;2023-10-13T05:13:41;21.30;99.90
15625;DHT22;7912;51.376;6.126;2023-10-13T05:16:28;21.30;99.90
15625;DHT22;7912;51.376;6.126;2023-10-13T05:19:14;21.30;99.90
15625;DHT22;7912;51.376;6.126;2023-10-13T05:25:42;21.30;99.90
15625;DHT22;7912;51.376;6.126;2023-10-13T05:28:28;21.30;99.90
15625;DHT22;7912;51.376;6.126;2023-10-13T05:31:13;21.40;99.90
15625;DHT22;7912;51.376;6.126;2023-10-13T05:33:59;21.30;99.90
15625;DHT22;7912;51.376;6.126;2023-10-13T05:36:45;21.40;99.90
15625;DHT22;7912;51.376;6.126;2023-10-13T05:39:31;21.30;99.90
15625;DHT22;7912;51.376;6.126;2023-10-13T05:42:18;21.40;99.90
15625;DHT22;7912;51.376;6.126;2023-10-13T05:45:04;21.40;99.90
15625;DHT22;7912;51.376;6.126;2023-10-13T05:47:51;21.40;99.90
15625;DHT22;7912;51.376;6.126;2023-10-13T05:50:29;21.40;99.90
15625;DHT22;7912;51.376;6.126;2023-10-13T05:53:16;21.30;99.90
15625;DHT22;7912;51.376;6.126;2023-10-13T05:56:22;21.40;99.90
15625;DHT22;7912;51.376;6.126;2023-10-13T05:59:08;21.30;99.90
15625;DHT22;7912;51.376;6.126;2023-10-13T06:02:14;21.30;99.90
15625;DHT22;7912;51.376;6.126;2023-10-13T06:05:21;21.30;99.90
15625;DHT22;7912;51.376;6.126;2023-10-13T06:08:07;21.30;99.90
15625;DHT22;7912;51.376;6.126;2023-10-13T06:11:01;21.20;99.90
15625;DHT22;7912;51.376;6.126;2023-10-13T06:13:48;21.20;99.90
15625;DHT22;7912;51.376;6.126;2023-10-13T06:16:34;21.20;99.90
15625;DHT22;7912;51.376;6.126;2023-10-13T06:19:20;21.20;99.90
15625;DHT22;7912;51.376;6.126;2023-10-13T06:22:06;21.20;99.90
15625;DHT22;7912;51.376;6.126;2023-10-13T06:24:52;21.10;99.90
15625;DHT22;7912;51.376;6.126;2023-10-13T06:27:38;21.10;99.90
15625;DHT22;7912;51.376;6.126;2023-10-13T06:30:24;21.10;99.90
15625;DHT22;7912;51.376;6.126;2023-10-13T06:32:52;21.20;99.90
15625;DHT22;7912;51.376;6.126;2023-10-13T06:35:20;21.20;99.90
15625;DHT22;7912;51.376;6.126;2023-10-13T06:37:51;21.20;99.90
15625;DHT22;7912;51.376;6.126;2023-10-13T06:40:18;21.20;99.90
15625;DHT22;7912;51.376;6.126;2023-10-13T06:42:58;21.20;99.90
15625;DHT22;7912;51.376;6.126;2023-10-13T06:45:40;21.30;99.90
15625;DHT22;7912;51.376;6.126;2023-10-13T06:48:08;21.30;99.90
15625;DHT22;7912;51.376;6.126;2023-10-13T06:50:39;21.40;99.90
15625;DHT22;7912;51.376;6.126;2023-10-13T06:53:08;21.40;99.90
15625;DHT22;7912;51.376;6.126;2023-10-13T06:55:39;21.40;99.90
15625;DHT22;7912;51.376;6.126;2023-10-13T06:58:07;21.40;99.90
15625;DHT22;7912;51.376;6.126;2023-10-13T07:00:41;21.50;99.90
15625;DHT22;7912;51.376;6.126;2023-10-13T07:03:19;21.50;99.90
15625;DHT22;7912;51.376;6.126;2023-10-13T07:05:48;21.60;99.90
15625;DHT22;7912;51.376;6.126;2023-10-13T07:08:16;21.60;99.90
15625;DHT22;7912;51.376;6.126;2023-10-13T07:10:50;21.70;99.90
15625;DHT22;7912;51.376;6.126;2023-10-13T07:13:32;21.70;99.90
15625;DHT22;7912;51.376;6.126;2023-10-13T07:19:14;21.80;99.90
15625;DHT22;7912;51.376;6.126;2023-10-13T07:21:48;21.80;99.90
15625;DHT22;7912;51.376;6.126;2023-10-13T07:24:16;21.90;99.90
15625;DHT22;7912;51.376;6.126;2023-10-13T07:26:44;21.90;99.90
15625;DHT22;7912;51.376;6.126;2023-10-13T07:29:16;21.90;99.90
15625;DHT22;7912;51.376;6.126;2023-10-13T07:31:43;21.90;99.90
15625;DHT22;7912;51.376;6.126;2023-10-13T07:34:15;22.00;99.90
15625;DHT22;7912;51.376;6.126;2023-10-13T07:36:59;22.00;99.90
15625;DHT22;7912;51.376;6.126;2023-10-13T07:39:31;22.10;99.90
15625;DHT22;7912;51.376;6.126;2023-10-13T07:42:04;22.10;99.90
15625;DHT22;7912;51.376;6.126;2023-10-13T07:44:42;22.20;99.90
15625;DHT22;7912;51.376;6.126;2023-10-13T07:47:15;22.20;99.90
15625;DHT22;7912;51.376;6.126;2023-10-13T07:49:45;22.20;99.90
15625;DHT22;7912;51.376;6.126;2023-10-13T07:52:18;22.30;99.90
15625;DHT22;7912;51.376;6.126;2023-10-13T07:54:46;22.30;99.90
15625;DHT22;7912;51.376;6.126;2023-10-13T07:57:16;22.40;99.90
15625;DHT22;7912;51.376;6.126;2023-10-13T07:59:44;22.40;99.90
15625;DHT22;7912;51.376;6.126;2023-10-13T08:02:16;22.50;99.90
15625;DHT22;7912;51.376;6.126;2023-10-13T08:05:09;22.60;99.90
15625;DHT22;7912;51.376;6.126;2023-10-13T08:07:41;22.70;99.90
15625;DHT22;7912;51.376;6.126;2023-10-13T08:10:08;22.80;99.90
15625;DHT22;7912;51.376;6.126;2023-10-13T08:12:37;22.90;99.90
15625;DHT22;7912;51.376;6.126;2023-10-13T08:15:05;23.00;99.90
15625;DHT22;7912;51.376;6.126;2023-10-13T08:17:48;23.10;99.90
15625;DHT22;7912;51.376;6.126;2023-10-13T08:20:18;23.20;99.90
15625;DHT22;7912;51.376;6.126;2023-10-13T08:22:48;23.30;99.90
15625;DHT22;7912;51.376;6.126;2023-10-13T08:25:16;23.30;99.90
15625;DHT22;7912;51.376;6.126;2023-10-13T08:28:09;23.40;99.90
15625;DHT22;7912;51.376;6.126;2023-10-13T08:31:05;23.50;99.90
15625;DHT22;7912;51.376;6.126;2023-10-13T08:33:53;23.60;99.90
15625;DHT22;7912;51.376;6.126;2023-10-13T08:36:34;23.60;99.90
15625;DHT22;7912;51.376;6.126;2023-10-13T08:39:05;23.70;99.90
15625;DHT22;7912;51.376;6.126;2023-10-13T08:41:52;23.70;99.90
15625;DHT22;7912;51.376;6.126;2023-10-13T08:44:44;23.80;99.90
15625;DHT22;7912;51.376;6.126;2023-10-13T08:47:19;23.80;99.90
15625;DHT22;7912;51.376;6.126;2023-10-13T08:49:52;23.80;99.90
15625;DHT22;7912;51.376;6.126;2023-10-13T08:52:38;23.90;99.90
15625;DHT22;7912;51.376;6.126;2023-10-13T08:55:17;23.90;99.90
15625;DHT22;7912;51.376;6.126;2023-10-13T08:58:15;24.00;99.90
15625;DHT22;7912;51.376;6.126;2023-10-13T09:00:47;24.00;99.90
15625;DHT22;7912;51.376;6.126;2023-10-13T09:03:42;24.10;99.90
15625;DHT22;7912;51.376;6.126;2023-10-13T09:06:13;24.20;99.90
15625;DHT22;7912;51.376;6.126;2023-10-13T09:12:11;24.30;99.90
15625;DHT22;7912;51.376;6.126;2023-10-13T09:14:40;24.40;99.90
15625;DHT22;7912;51.376;6.126;2023-10-13T09:17:12;24.40;99.90
15625;DHT22;7912;51.376;6.126;2023-10-13T09:19:51;24.40;99.90
15625;DHT22;7912;51.376;6.126;2023-10-13T09:22:29;24.50;99.90
15625;DHT22;7912;51.376;6.126;2023-10-13T09:25:10;24.60;99.90
15625;DHT22;7912;51.376;6.126;2023-10-13T09:27:59;24.60;99.90
15625;DHT22;7912;51.376;6.126;2023-10-13T09:30:28;24.70;99.90
15625;DHT22;7912;51.376;6.126;2023-10-13T09:33:01;24.80;99.90
15625;DHT22;7912;51.376;6.126;2023-10-13T09:35:31;24.90;99.90
15625;DHT22;7912;51.376;6.126;2023-10-13T09:38:03;24.90;99.90
15625;DHT22;7912;51.376;6.126;2023-10-13T09:40:31;25.00;99.90
15625;DHT22;7912;51.376;6.126;2023-10-13T09:43:05;25.00;99.90
15625;DHT22;7912;51.376;6.126;2023-10-13T09:45:35;25.00;99.90
15625;DHT22;7912;51.376;6.126;2023-10-13T09:48:32;25.10;99.90
15625;DHT22;7912;51.376;6.126;2023-10-13T09:51:03;25.10;99.90
15625;DHT22;7912;51.376;6.126;2023-10-13T09:53:40;25.20;99.90
15625;DHT22;7912;51.376;6.126;2023-10-13T09:56:42;25.20;99.90
15625;DHT22;7912;51.376;6.126;2023-10-13T09:59:32;25.20;99.90
15625;DHT22;7912;51.376;6.126;2023-10-13T10:02:05;25.20;99.90
15625;DHT22;7912;51.376;6.126;2023-10-13T10:04:52;25.20;99.90
15625;DHT22;7912;51.376;6.126;2023-10-13T10:07:40;25.30;99.90
15625;DHT22;7912;51.376;6.126;2023-10-13T10:10:08;25.30;99.90
15625;DHT22;7912;51.376;6.126;2023-10-13T10:12:42;25.40;99.90
15625;DHT22;7912;51.376;6.126;2023-10-13T10:15:26;25.50;99.90
15625;DHT22;7912;51.376;6.126;2023-10-13T10:18:21;25.50;99.90
15625;DHT22;7912;51.376;6.126;2023-10-13T10:21:02;25.60;99.90
15625;DHT22;7912;51.376;6.126;2023-10-13T10:23:34;25.70;99.90
15625;DHT22;7912;51.376;6.126;2023-10-13T10:26:16;25.80;99.90
15625;DHT22;7912;51.376;6.126;2023-10-13T10:28:47;25.90;99.90
15625;DHT22;7912;51.376;6.126;2023-10-13T10:31:15;26.10;99.90
15625;DHT22;7912;51.376;6.126;2023-10-13T10:33:44;26.10;99.90
15625;DHT22;7912;51.376;6.126;2023-10-13T10:36:28;26.20;99.90
15625;DHT22;7912;51.376;6.126;2023-10-13T10:38:57;26.30;99.90
15625;DHT22;7912;51.376;6.126;2023-10-13T10:41:31;26.40;99.90
15625;DHT22;7912;51.376;6.126;2023-10-13T10:44:13;26.50;99.90
15625;DHT22;7912;51.376;6.126;2023-10-13T10:46:50;26.70;99.90
15625;DHT22;7912;51.376;6.126;2023-10-13T10:49:28;26.80;99.90
15625;DHT22;7912;51.376;6.126;2023-10-13T10:51:59;26.90;99.90
15625;DHT22;7912;51.376;6.126;2023-10-13T10:54:31;27.10;99.90
15625;DHT22;7912;51.376;6.126;2023-10-13T10:56:59;27.20;99.90
15625;DHT22;7912;51.376;6.126;2023-10-13T10:59:45;27.30;99.90
15625;DHT22;7912;51.376;6.126;2023-10-13T11:02:16;27.50;99.90
15625;DHT22;7912;51.376;6.126;2023-10-13T11:04:50;27.60;99.90
15625;DHT22;7912;51.376;6.126;2023-10-13T11:07:25;27.80;99.90
15625;DHT22;7912;51.376;6.126;2023-10-13T11:09:54;27.90;99.90
15625;DHT22;7912;51.376;6.126;2023-10-13T11:12:33;28.10;99.90
15625;DHT22;7912;51.376;6.126;2023-10-13T11:15:02;28.20;99.90
15625;DHT22;7912;51.376;6.126;2023-10-13T11:17:48;28.30;99.90
15625;DHT22;7912;51.376;6.126;2023-10-13T11:20:22;28.40;99.90
15625;DHT22;7912;51.376;6.126;2023-10-13T11:22:53;28.40;99.90
15625;DHT22;7912;51.376;6.126;2023-10-13T11:25:32;28.40;99.90
15625;DHT22;7912;51.376;6.126;2023-10-13T11:28:17;28.30;99.20
15625;DHT22;7912;51.376;6.126;2023-10-13T11:30:47;28.30;99.20
15625;DHT22;7912;51.376;6.126;2023-10-13T11:33:18;28.30;99.40
15625;DHT22;7912;51.376;6.126;2023-10-13T11:36:06;28.20;99.60
15625;DHT22;7912;51.376;6.126;2023-10-13T11:38:42;28.20;99.30
15625;DHT22;7912;51.376;6.126;2023-10-13T11:41:15;28.20;99.10
15625;DHT22;7912;51.376;6.126;2023-10-13T11:43:47;28.20;99.10
15625;DHT22;7912;51.376;6.126;2023-10-13T11:46:22;28.20;99.10
15625;DHT22;7912;51.376;6.126;2023-10-13T11:49:04;28.30;99.00
15625;DHT22;7912;51.376;6.126;2023-10-13T11:51:46;28.50;98.90
15625;DHT22;7912;51.376;6.126;2023-10-13T11:54:15;28.60;98.20
15625;DHT22;7912;51.376;6.126;2023-10-13T11:56:45;28.80;98.30
15625;DHT22;7912;51.376;6.126;2023-10-13T11:59:14;28.90;97.80
15625;DHT22;7912;51.376;6.126;2023-10-13T12:01:49;28.90;97.40
15625;DHT22;7912;51.376;6.126;2023-10-13T12:04:46;28.90;96.90
15625;DHT22;7912;51.376;6.126;2023-10-13T12:07:22;28.90;96.80
15625;DHT22;7912;51.376;6.126;2023-10-13T12:10:09;28.80;96.70
15625;DHT22;7912;51.376;6.126;2023-10-13T12:12:43;28.80;96.70
15625;DHT22;7912;51.376;6.126;2023-10-13T12:15:13;28.80;97.00
15625;DHT22;7912;51.376;6.126;2023-10-13T12:17:52;28.70;96.50
15625;DHT22;7912;51.376;6.126;2023-10-13T12:20:26;28.70;96.10
15625;DHT22;7912;51.376;6.126;2023-10-13T12:23:00;28.70;95.90
15625;DHT22;7912;51.376;6.126;2023-10-13T12:25:42;28.70;96.10
15625;DHT22;7912;51.376;6.126;2023-10-13T12:28:25;28.60;96.10
15625;DHT22;7912;51.376;6.126;2023-10-13T12:30:55;28.60;95.80
15625;DHT22;7912;51.376;6.126;2023-10-13T12:33:25;28.60;95.60
15625;DHT22;7912;51.376;6.126;2023-10-13T12:36:04;28.50;95.60
15625;DHT22;7912;51.376;6.126;2023-10-13T12:38:35;28.50;95.30
15625;DHT22;7912;51.376;6.126;2023-10-13T12:41:16;28.40;95.30
15625;DHT22;7912;51.376;6.126;2023-10-13T12:44:05;28.40;95.30
15625;DHT22;7912;51.376;6.126;2023-10-13T12:46:52;28.30;95.20
15625;DHT22;7912;51.376;6.126;2023-10-13T12:49:39;28.30;95.00
15625;DHT22;7912;51.376;6.126;2023-10-13T12:52:11;28.30;95.00
15625;DHT22;7912;51.376;6.126;2023-10-13T12:54:59;28.30;94.90
15625;DHT22;7912;51.376;6.126;2023-10-13T12:57:34;28.40;95.30
15625;DHT22;7912;51.376;6.126;2023-10-13T13:00:09;28.50;94.90
15625;DHT22;7912;51.376;6.126;2023-10-13T13:02:48;28.60;94.80
15625;DHT22;7912;51.376;6.126;2023-10-13T13:05:18;28.70;94.20
15625;DHT22;7912;51.376;6.126;2023-10-13T13:07:50;28.80;94.20
15625;DHT22;7912;51.376;6.126;2023-10-13T13:10:21;28.90;94.00
15625;DHT22;7912;51.376;6.126;2023-10-13T13:13:23;29.00;93.60
15625;DHT22;7912;51.376;6.126;2023-10-13T13:15:51;29.20;93.30
15625;DHT22;7912;51.376;6.126;2023-10-13T13:18:19;29.20;93.30
15625;DHT22;7912;51.376;6.126;2023-10-13T13:20:46;29.40;92.50
15625;DHT22;7912;51.376;6.126;2023-10-13T13:23:21;29.40;92.40
15625;DHT22;7912;51.376;6.126;2023-10-13T13:25:58;29.40;91.50
15625;DHT22;7912;51.376;6.126;2023-10-13T13:28:26;29.40;91.50
15625;DHT22;7912;51.376;6.126;2023-10-13T13:30:56;29.30;91.10
15625;DHT22;7912;51.376;6.126;2023-10-13T13:33:24;29.20;91.20
15625;DHT22;7912;51.376;6.126;2023-10-13T13:35:56;29.10;91.20
15625;DHT22;7912;51.376;6.126;2023-10-13T13:38:26;29.00;90.70
15625;DHT22;7912;51.376;6.126;2023-10-13T13:40:59;28.90;91.30
15625;DHT22;7912;51.376;6.126;2023-10-13T13:43:29;28.70;91.70
15625;DHT22;7912;51.376;6.126;2023-10-13T13:46:08;28.60;91.70
15625;DHT22;7912;51.376;6.126;2023-10-13T13:48:39;28.50;91.80
15625;DHT22;7912;51.376;6.126;2023-10-13T13:51:09;28.40;91.80
15625;DHT22;7912;51.376;6.126;2023-10-13T13:53:43;28.20;92.00
15625;DHT22;7912;51.376;6.126;2023-10-13T13:56:15;28.20;91.90
15625;DHT22;7912;51.376;6.126;2023-10-13T13:58:50;28.10;91.90
15625;DHT22;7912;51.376;6.126;2023-10-13T14:01:21;28.00;92.00
15625;DHT22;7912;51.376;6.126;2023-10-13T14:03:49;27.90;92.10
15625;DHT22;7912;51.376;6.126;2023-10-13T14:06:19;27.80;92.30
15625;DHT22;7912;51.376;6.126;2023-10-13T14:08:52;27.70;92.70
15625;DHT22;7912;51.376;6.126;2023-10-13T14:11:26;27.60;92.70
15625;DHT22;7912;51.376;6.126;2023-10-13T14:16:43;27.40;92.70
15625;DHT22;7912;51.376;6.126;2023-10-13T14:19:14;27.30;93.00
15625;DHT22;7912;51.376;6.126;2023-10-13T14:21:55;27.20;93.10
15625;DHT22;7912;51.376;6.126;2023-10-13T14:24:24;27.20;93.30
15625;DHT22;7912;51.376;6.126;2023-10-13T14:26:56;27.10;93.20
15625;DHT22;7912;51.376;6.126;2023-10-13T14:29:41;27.00;93.40
15625;DHT22;7912;51.376;6.126;2023-10-13T14:32:14;26.90;93.30
15625;DHT22;7912;51.376;6.126;2023-10-13T14:34:45;26.80;93.40
15625;DHT22;7912;51.376;6.126;2023-10-13T14:37:21;26.80;93.60
15625;DHT22;7912;51.376;6.126;2023-10-13T14:39:58;26.70;93.70
15625;DHT22;7912;51.376;6.126;2023-10-13T14:42:28;26.70;94.00
15625;DHT22;7912;51.376;6.126;2023-10-13T14:44:55;26.60;94.10
15625;DHT22;7912;51.376;6.126;2023-10-13T14:47:26;26.60;94.10
15625;DHT22;7912;51.376;6.126;2023-10-13T14:49:55;26.50;94.10
15625;DHT22;7912;51.376;6.126;2023-10-13T14:52:23;26.50;94.20
15625;DHT22;7912;51.376;6.126;2023-10-13T14:54:50;26.40;94.20
15625;DHT22;7912;51.376;6.126;2023-10-13T14:57:22;26.40;94.20
15625;DHT22;7912;51.376;6.126;2023-10-13T14:59:56;26.40;94.20
15625;DHT22;7912;51.376;6.126;2023-10-13T15:02:28;26.30;94.00
15625;DHT22;7912;51.376;6.126;2023-10-13T15:04:56;26.30;94.30
15625;DHT22;7912;51.376;6.126;2023-10-13T15:07:24;26.20;94.30
15625;DHT22;7912;51.376;6.126;2023-10-13T15:09:55;26.20;94.30
15625;DHT22;7912;51.376;6.126;2023-10-13T15:12:24;26.20;94.50
15625;DHT22;7912;51.376;6.126;2023-10-13T15:14:55;26.10;94.50
15625;DHT22;7912;51.376;6.126;2023-10-13T15:17:23;26.10;94.50
15625;DHT22;7912;51.376;6.126;2023-10-13T15:19:51;26.10;94.50
15625;DHT22;7912;51.376;6.126;2023-10-13T15:22:19;26.10;94.60
15625;DHT22;7912;51.376;6.126;2023-10-13T15:24:53;26.10;94.50
15625;DHT22;7912;51.376;6.126;2023-10-13T15:27:36;26.10;94.50
15625;DHT22;7912;51.376;6.126;2023-10-13T15:30:09;26.10;94.60
15625;DHT22;7912;51.376;6.126;2023-10-13T15:32:47;26.10;94.60
15625;DHT22;7912;51.376;6.126;2023-10-13T15:35:16;26.10;94.50
15625;DHT22;7912;51.376;6.126;2023-10-13T15:37:44;26.00;94.60
15625;DHT22;7912;51.376;6.126;2023-10-13T15:40:14;26.00;94.50
15625;DHT22;7912;51.376;6.126;2023-10-13T15:42:45;25.90;94.50
15625;DHT22;7912;51.376;6.126;2023-10-13T15:45:13;25.90;94.50
15625;DHT22;7912;51.376;6.126;2023-10-13T15:47:45;25.80;94.60
15625;DHT22;7912;51.376;6.126;2023-10-13T15:50:16;25.80;94.80
15625;DHT22;7912;51.376;6.126;2023-10-13T15:52:49;25.80;94.90
15625;DHT22;7912;51.376;6.126;2023-10-13T15:55:17;25.70;94.90
15625;DHT22;7912;51.376;6.126;2023-10-13T15:57:44;25.70;94.80
15625;DHT22;7912;51.376;6.126;2023-10-13T16:00:12;25.60;94.90
15625;DHT22;7912;51.376;6.126;2023-10-13T16:02:57;25.60;95.00
15625;DHT22;7912;51.376;6.126;2023-10-13T16:05:32;25.60;95.10
15625;DHT22;7912;51.376;6.126;2023-10-13T16:08:04;25.50;95.20
15625;DHT22;7912;51.376;6.126;2023-10-13T16:10:40;25.50;95.40
15625;DHT22;7912;51.376;6.126;2023-10-13T16:13:08;25.40;95.40
15625;DHT22;7912;51.376;6.126;2023-10-13T16:15:43;25.40;95.70
15625;DHT22;7912;51.376;6.126;2023-10-13T16:18:13;25.40;95.60
15625;DHT22;7912;51.376;6.126;2023-10-13T16:20:41;25.30;95.40
15625;DHT22;7912;51.376;6.126;2023-10-13T16:23:08;25.30;95.50
15625;DHT22;7912;51.376;6.126;2023-10-13T16:25:36;25.30;95.60
15625;DHT22;7912;51.376;6.126;2023-10-13T16:28:03;25.20;95.90
15625;DHT22;7912;51.376;6.126;2023-10-13T16:30:32;25.20;96.50
15625;DHT22;7912;51.376;6.126;2023-10-13T16:32:59;25.20;97.00
15625;DHT22;7912;51.376;6.126;2023-10-13T16:35:27;25.10;97.50
15625;DHT22;7912;51.376;6.126;2023-10-13T16:37:54;25.00;97.60
15625;DHT22;7912;51.376;6.126;2023-10-13T16:40:22;24.90;97.90
15625;DHT22;7912;51.376;6.126;2023-10-13T16:42:49;24.80;98.50
15625;DHT22;7912;51.376;6.126;2023-10-13T16:45:20;24.70;99.00
15625;DHT22;7912;51.376;6.126;2023-10-13T16:47:49;24.60;99.40
15625;DHT22;7912;51.376;6.126;2023-10-13T16:50:21;24.50;99.70